Time;durP1;ratioP1;P1;durP2;ratioP2;P2;SDS_P1;SDS_P2;PMS_P1;PMS_P2;Temp;Humidity;BMP_temperature;BMP_pressure;BME280_temperature;BME280_humidity;BME280_pressure;Samples;Min_cycle;Max_cycle;Signal;HPM_P1;HPM_P2
2023/06/23 00:01:51;;;;;;;;;;;;;;;;;;5037276;28;19966;-66
2023/06/23 00:04:19;;;;;;;;;;;;;;;;;;5037134;28;19985;-66
2023/06/23 00:06:45;;;;;;;;;;;;;;;;;;5036540;28;19960;-66
2023/06/23 00:09:15;;;;;;;;;;;;;;;;;;5036577;28;19963;-66
2023/06/23 00:11:41;;;;;;;;;;;;;;;;;;5037163;28;19990;-67
2023/06/23 00:14:07;;;;;;;;;;;;;;;;;;5036504;28;19967;-67
2023/06/23 00:16:33;;;;;;;;;;;;;;;;;;5037046;28;20408;-67
2023/06/23 00:18:58;;;;;;;;;;;;;;;;;;5036396;28;19963;-66
2023/06/23 00:21:24;;;;;;;;;;;;;;;;;;5036418;28;19999;-66
2023/06/23 00:23:50;;;;;;;;;;;;;;;;;;5036230;28;20046;-67
2023/06/23 00:26:17;;;;;;;;;;;;;;;;;;5036831;28;20481;-67
2023/06/23 00:28:42;;;;;;;;;;;;;;;;;;5034360;28;20097;-66
2023/06/23 00:31:08;;;;;;;;;;;;;;;;;;5036192;28;19991;-67
2023/06/23 00:33:34;;;;;;;;;;;;;;;;;;5036739;28;20415;-67
2023/06/23 00:36:00;;;;;;;;;;;;;;;;;;5036059;28;19979;-66
2023/06/23 00:38:26;;;;;;;;;;;;;;;;;;5036347;28;20062;-67
2023/06/23 00:40:52;;;;;;;;;;;;;;;;;;5035990;28;19996;-66
2023/06/23 00:43:18;;;;;;;;;;;;;;;;;;5035768;28;20030;-67
2023/06/23 00:45:44;;;;;;;;;;;;;;;;;;5035953;28;20371;-66
2023/06/23 00:48:14;;;;;;;;;;;;;;;;;;5035904;28;20444;-65
2023/06/23 00:50:39;;;;;;;;;;;;;;;;;;5035834;28;19955;-66
2023/06/23 00:53:05;;;;;;;;;;;;;;;;;;5035818;28;19963;-67
2023/06/23 00:55:31;;;;;;;;;;;;;;;;;;5036313;28;20443;-67
2023/06/23 00:57:57;;;;;;;;;;;;;;;;;;5035696;28;20085;-67
2023/06/23 01:00:23;;;;;;;;;;;;;;;;;;5036245;28;20396;-66
2023/06/23 01:02:49;;;;;;;;;;;;;;;;;;5035894;28;19958;-66
2023/06/23 01:05:15;;;;;;;;;;;;;;;;;;5036200;28;20018;-66
2023/06/23 01:07:42;;;;;;;;;;;;;;;;;;5035517;28;20042;-67
2023/06/23 01:10:10;;;;;;;;;;;;;;;;;;5034227;28;20322;-67
2023/06/23 01:12:36;;;;;;;;;;;;;;;;;;5036056;28;19956;-66
2023/06/23 01:15:02;;;;;;;;;;;;;;;;;;5035633;28;20006;-67
2023/06/23 01:17:28;;;;;;;;;;;;;;;;;;5035617;28;19999;-66
2023/06/23 01:19:54;;;;;;;;;;;;;;;;;;5035338;28;19961;-66
2023/06/23 01:22:20;;;;;;;;;;;;;;;;;;5035296;28;19955;-66
2023/06/23 01:24:47;;;;;;;;;;;;;;;;;;5035118;28;19976;-66
2023/06/23 01:27:12;;;;;;;;;;;;;;;;;;5035152;28;19964;-66
2023/06/23 01:29:38;;;;;;;;;;;;;;;;;;5035086;28;19956;-67
2023/06/23 01:32:04;;;;;;;;;;;;;;;;;;5035304;28;19956;-67
2023/06/23 01:34:30;;;;;;;;;;;;;;;;;;5034958;28;20002;-66
2023/06/23 01:36:56;;;;;;;;;;;;;;;;;;5034998;28;20040;-66
2023/06/23 01:39:22;;;;;;;;;;;;;;;;;;5035199;28;19962;-66
2023/06/23 01:41:48;;;;;;;;;;;;;;;;;;5034676;28;19963;-67
2023/06/23 01:44:14;;;;;;;;;;;;;;;;;;5035359;28;20329;-66
2023/06/23 01:46:40;;;;;;;;;;;;;;;;;;5034758;28;20019;-67
2023/06/23 01:49:07;;;;;;;;;;;;;;;;;;5034711;28;19956;-67
2023/06/23 01:51:33;;;;;;;;;;;;;;;;;;5034939;28;19962;-67
2023/06/23 01:53:58;;;;;;;;;;;;;;;;;;5034629;28;19956;-67
2023/06/23 01:56:24;;;;;;;;;;;;;;;;;;5034600;28;19998;-66
2023/06/23 01:58:50;;;;;;;;;;;;;;;;;;5034870;28;19991;-66
2023/06/23 02:01:16;;;;;;;;;;;;;;;;;;5034479;28;20545;-66
2023/06/23 02:03:42;;;;;;;;;;;;;;;;;;5034341;28;19976;-66
2023/06/23 02:06:08;;;;;;;;;;;;;;;;;;5034965;28;19956;-66
2023/06/23 02:08:34;;;;;;;;;;;;;;;;;;5034914;28;20308;-67
2023/06/23 02:11:00;;;;;;;;;;;;;;;;;;5034292;28;20111;-67
2023/06/23 02:13:26;;;;;;;;;;;;;;;;;;5034287;28;19956;-66
2023/06/23 02:15:52;;;;;;;;;;;;;;;;;;5034503;28;19966;-67
2023/06/23 02:18:18;;;;;;;;;;;;;;;;;;5034218;28;20432;-67
2023/06/23 02:20:43;;;;;;;;;;;;;;;;;;5034180;28;19956;-66
2023/06/23 02:23:09;;;;;;;;;;;;;;;;;;5034158;28;20325;-65
2023/06/23 02:25:35;;;;;;;;;;;;;;;;;;5034095;28;19987;-67
2023/06/23 02:28:01;;;;;;;;;;;;;;;;;;5034417;28;19987;-67
2023/06/23 02:30:27;;;;;;;;;;;;;;;;;;5034312;28;20331;-66
2023/06/23 02:32:53;;;;;;;;;;;;;;;;;;5034017;28;19956;-66
2023/06/23 02:35:19;;;;;;;;;;;;;;;;;;5034001;28;19972;-67
2023/06/23 02:37:45;;;;;;;;;;;;;;;;;;5033990;28;20324;-66
2023/06/23 02:40:16;;;;;;;;;;;;;;;;;;5033918;28;20014;-67
2023/06/23 02:42:41;;;;;;;;;;;;;;;;;;5033811;28;20361;-67
2023/06/23 02:45:07;;;;;;;;;;;;;;;;;;5034296;28;19990;-66
2023/06/23 02:47:33;;;;;;;;;;;;;;;;;;5033806;28;19956;-66
2023/06/23 02:49:59;;;;;;;;;;;;;;;;;;5033761;28;19960;-66
2023/06/23 02:52:25;;;;;;;;;;;;;;;;;;5033623;28;19956;-66
2023/06/23 02:54:51;;;;;;;;;;;;;;;;;;5033661;28;20328;-67
2023/06/23 02:57:17;;;;;;;;;;;;;;;;;;5033986;28;19960;-66
2023/06/23 02:59:44;;;;;;;;;;;;;;;;;;5033654;28;19957;-66
2023/06/23 03:02:09;;;;;;;;;;;;;;;;;;5033568;28;20007;-67
2023/06/23 03:04:39;;;;;;;;;;;;;;;;;;5034077;28;20024;-67
2023/06/23 03:07:05;;;;;;;;;;;;;;;;;;5033608;28;19956;-66
2023/06/23 03:09:31;;;;;;;;;;;;;;;;;;5034374;28;20002;-67
2023/06/23 03:11:57;;;;;;;;;;;;;;;;;;5033516;28;19960;-67
2023/06/23 03:14:23;;;;;;;;;;;;;;;;;;5033540;28;19956;-66
2023/06/23 03:16:49;;;;;;;;;;;;;;;;;;5033811;28;19961;-66
2023/06/23 03:19:14;;;;;;;;;;;;;;;;;;5033492;28;19956;-66
2023/06/23 03:21:40;;;;;;;;;;;;;;;;;;5033506;28;20321;-66
2023/06/23 03:24:06;;;;;;;;;;;;;;;;;;5033390;28;20162;-67
2023/06/23 03:26:36;;;;;;;;;;;;;;;;;;5033446;28;20438;-67
2023/06/23 03:29:03;;;;;;;;;;;;;;;;;;5032155;28;19959;-66
2023/06/23 03:31:29;;;;;;;;;;;;;;;;;;5033673;28;19959;-67
2023/06/23 03:33:54;;;;;;;;;;;;;;;;;;5033241;28;19956;-67
2023/06/23 03:36:20;;;;;;;;;;;;;;;;;;5033854;28;19986;-66
2023/06/23 03:38:46;;;;;;;;;;;;;;;;;;5033283;28;19960;-66
2023/06/23 03:41:13;;;;;;;;;;;;;;;;;;5033801;28;20442;-67
2023/06/23 03:43:39;;;;;;;;;;;;;;;;;;5032801;28;19991;-67
2023/06/23 03:46:05;;;;;;;;;;;;;;;;;;5033488;28;19963;-67
2023/06/23 03:48:30;;;;;;;;;;;;;;;;;;5033241;28;19955;-66
2023/06/23 03:50:56;;;;;;;;;;;;;;;;;;5033740;28;19964;-66
2023/06/23 03:53:22;;;;;;;;;;;;;;;;;;5033457;28;19963;-67
2023/06/23 03:55:48;;;;;;;;;;;;;;;;;;5033218;28;20439;-67
2023/06/23 03:58:14;;;;;;;;;;;;;;;;;;5033670;28;20356;-67
2023/06/23 04:00:40;;;;;;;;;;;;;;;;;;5033366;28;19956;-66
2023/06/23 04:03:06;;;;;;;;;;;;;;;;;;5033949;28;19956;-67
2023/06/23 04:05:32;;;;;;;;;;;;;;;;;;5037143;28;19974;-66
2023/06/23 04:07:58;;;;;;;;;;;;;;;;;;5036935;28;20038;-67
2023/06/23 04:10:25;;;;;;;;;;;;;;;;;;5035322;28;20408;-67
2023/06/23 04:12:51;;;;;;;;;;;;;;;;;;5035030;28;19959;-66
2023/06/23 04:15:17;;;;;;;;;;;;;;;;;;5036807;28;19959;-67
2023/06/23 04:17:42;;;;;;;;;;;;;;;;;;5036567;28;19963;-67
2023/06/23 04:20:08;;;;;;;;;;;;;;;;;;5036744;28;19977;-67
2023/06/23 04:22:34;;;;;;;;;;;;;;;;;;5036370;28;19994;-66
2023/06/23 04:25:00;;;;;;;;;;;;;;;;;;5036303;28;19980;-66
2023/06/23 04:27:26;;;;;;;;;;;;;;;;;;5036569;28;20003;-66
2023/06/23 04:29:52;;;;;;;;;;;;;;;;;;5036242;28;19960;-66
2023/06/23 04:32:18;;;;;;;;;;;;;;;;;;5036249;28;20300;-65
2023/06/23 04:34:44;;;;;;;;;;;;;;;;;;5036112;28;19972;-66
2023/06/23 04:37:10;;;;;;;;;;;;;;;;;;5036694;28;20372;-66
2023/06/23 04:39:36;;;;;;;;;;;;;;;;;;5036088;28;20412;-67
2023/06/23 04:42:02;;;;;;;;;;;;;;;;;;5035844;28;20106;-66
2023/06/23 04:44:28;;;;;;;;;;;;;;;;;;5036201;28;19979;-67
2023/06/23 04:46:54;;;;;;;;;;;;;;;;;;5035957;28;20327;-66
2023/06/23 04:49:20;;;;;;;;;;;;;;;;;;5035902;28;20003;-66
2023/06/23 04:51:46;;;;;;;;;;;;;;;;;;5035895;28;19955;-66
2023/06/23 04:54:12;;;;;;;;;;;;;;;;;;5036415;28;19964;-67
2023/06/23 04:56:38;;;;;;;;;;;;;;;;;;5035766;28;20416;-67
2023/06/23 04:59:04;;;;;;;;;;;;;;;;;;5035736;28;19954;-67
2023/06/23 05:01:30;;;;;;;;;;;;;;;;;;5036232;28;19957;-67
2023/06/23 05:03:56;;;;;;;;;;;;;;;;;;5035542;28;19983;-66
2023/06/23 05:06:22;;;;;;;;;;;;;;;;;;5036112;28;20010;-67
2023/06/23 05:08:48;;;;;;;;;;;;;;;;;;5035842;28;20006;-67
2023/06/23 05:11:14;;;;;;;;;;;;;;;;;;5035520;28;19956;-67
2023/06/23 05:13:40;;;;;;;;;;;;;;;;;;5035833;28;20425;-66
2023/06/23 05:16:10;;;;;;;;;;;;;;;;;;5035403;28;20009;-66
2023/06/23 05:18:36;;;;;;;;;;;;;;;;;;5034104;28;19967;-66
2023/06/23 05:21:02;;;;;;;;;;;;;;;;;;5035301;28;19956;-67
2023/06/23 05:23:28;;;;;;;;;;;;;;;;;;5035183;28;19955;-67
2023/06/23 05:25:56;;;;;;;;;;;;;;;;;;5035503;28;19957;-67
2023/06/23 05:28:24;;;;;;;;;;;;;;;;;;5035161;28;20033;-67
2023/06/23 05:30:50;;;;;;;;;;;;;;;;;;5035331;28;19960;-67
2023/06/23 05:33:16;;;;;;;;;;;;;;;;;;5035315;28;19978;-67
2023/06/23 05:35:42;;;;;;;;;;;;;;;;;;5034951;28;19970;-66
2023/06/23 05:38:08;;;;;;;;;;;;;;;;;;5034964;28;19955;-66
2023/06/23 05:40:34;;;;;;;;;;;;;;;;;;5035125;28;19955;-67
2023/06/23 05:42:59;;;;;;;;;;;;;;;;;;5034613;28;20103;-67
2023/06/23 05:45:25;;;;;;;;;;;;;;;;;;5035281;28;20436;-66
2023/06/23 05:47:51;;;;;;;;;;;;;;;;;;5035086;28;19956;-66
2023/06/23 05:50:17;;;;;;;;;;;;;;;;;;5035333;28;19994;-66
2023/06/23 05:52:43;;;;;;;;;;;;;;;;;;5034681;28;20433;-67
2023/06/23 05:55:09;;;;;;;;;;;;;;;;;;5034593;28;20013;-66
2023/06/23 05:57:35;;;;;;;;;;;;;;;;;;5035102;28;20420;-67
2023/06/23 06:00:01;;;;;;;;;;;;;;;;;;5034747;28;19963;-66
2023/06/23 06:02:27;;;;;;;;;;;;;;;;;;5034487;28;20491;-66
2023/06/23 06:04:56;;;;;;;;;;;;;;;;;;5035210;28;20035;-66
2023/06/23 06:07:21;;;;;;;;;;;;;;;;;;5034427;28;19963;-66
2023/06/23 06:09:47;;;;;;;;;;;;;;;;;;5034405;28;19960;-65
2023/06/23 06:12:13;;;;;;;;;;;;;;;;;;5034386;28;19955;-65
2023/06/23 06:14:39;;;;;;;;;;;;;;;;;;5034871;28;19954;-63
2023/06/23 06:17:05;;;;;;;;;;;;;;;;;;5034532;28;19960;-62
2023/06/23 06:19:31;;;;;;;;;;;;;;;;;;5034812;28;20327;-64
2023/06/23 06:21:57;;;;;;;;;;;;;;;;;;5034426;28;19967;-63
2023/06/23 06:24:23;;;;;;;;;;;;;;;;;;5034078;28;20424;-65
2023/06/23 06:26:49;;;;;;;;;;;;;;;;;;5033707;28;20085;-63
2023/06/23 06:29:15;;;;;;;;;;;;;;;;;;5034319;28;20406;-63
2023/06/23 06:31:41;;;;;;;;;;;;;;;;;;5034563;28;20006;-65
2023/06/23 06:34:08;;;;;;;;;;;;;;;;;;5033938;28;20344;-64
2023/06/23 06:36:34;;;;;;;;;;;;;;;;;;5034282;28;19957;-65
2023/06/23 06:39:00;;;;;;;;;;;;;;;;;;5033884;28;19955;-65
2023/06/23 06:41:25;;;;;;;;;;;;;;;;;;5034434;28;20092;-65
2023/06/23 06:43:51;;;;;;;;;;;;;;;;;;5033308;28;20001;-67
2023/06/23 06:46:18;;;;;;;;;;;;;;;;;;5034065;28;19963;-67
2023/06/23 06:48:50;;;;;;;;;;;;;;;;;;5033333;28;20290;-67
2023/06/23 06:51:17;;;;;;;;;;;;;;;;;;5034294;28;19955;-68
2023/06/23 06:53:43;;;;;;;;;;;;;;;;;;5032442;28;20451;-66
2023/06/23 06:56:09;;;;;;;;;;;;;;;;;;5034255;28;20000;-66
2023/06/23 06:58:35;;;;;;;;;;;;;;;;;;5033673;28;19955;-65
2023/06/23 07:01:01;;;;;;;;;;;;;;;;;;5033669;28;19963;-67
2023/06/23 07:03:27;;;;;;;;;;;;;;;;;;5033871;28;20009;-66
2023/06/23 07:05:53;;;;;;;;;;;;;;;;;;5034394;28;19956;-66
2023/06/23 07:08:19;;;;;;;;;;;;;;;;;;5033880;28;20463;-68
2023/06/23 07:10:45;;;;;;;;;;;;;;;;;;5033570;28;20463;-69
2023/06/23 07:13:11;;;;;;;;;;;;;;;;;;5033536;28;20001;-68
2023/06/23 07:15:37;;;;;;;;;;;;;;;;;;5033798;28;20005;-64
2023/06/23 07:18:03;;;;;;;;;;;;;;;;;;5033816;28;20314;-68
2023/06/23 07:20:30;;;;;;;;;;;;;;;;;;5033488;28;19955;-68
2023/06/23 07:22:56;;;;;;;;;;;;;;;;;;5034101;28;19956;-66
2023/06/23 07:25:22;;;;;;;;;;;;;;;;;;5033606;28;20392;-68
2023/06/23 07:27:48;;;;;;;;;;;;;;;;;;5033417;28;20008;-67
2023/06/23 07:30:14;;;;;;;;;;;;;;;;;;5033380;28;19955;-66
2023/06/23 07:32:40;;;;;;;;;;;;;;;;;;5033861;28;20383;-67
2023/06/23 07:35:06;;;;;;;;;;;;;;;;;;5033503;28;19976;-65
2023/06/23 07:37:32;;;;;;;;;;;;;;;;;;5034949;28;20020;-65
2023/06/23 07:39:58;;;;;;;;;;;;;;;;;;5037487;28;20046;-66
2023/06/23 07:42:24;;;;;;;;;;;;;;;;;;5036968;28;19998;-67
2023/06/23 07:44:50;;;;;;;;;;;;;;;;;;5037304;28;19975;-68
2023/06/23 07:47:17;;;;;;;;;;;;;;;;;;5037062;28;19955;-64
2023/06/23 07:49:44;;;;;;;;;;;;;;;;;;5037084;28;19955;-66
2023/06/23 07:52:10;;;;;;;;;;;;;;;;;;5035452;28;19959;-64
2023/06/23 07:54:35;;;;;;;;;;;;;;;;;;5036892;28;20007;-64
2023/06/23 07:57:01;;;;;;;;;;;;;;;;;;5037367;28;20417;-64
2023/06/23 07:59:27;;;;;;;;;;;;;;;;;;5036819;28;19959;-65
2023/06/23 08:01:53;;;;;;;;;;;;;;;;;;5037061;28;19956;-66
2023/06/23 08:04:20;;;;;;;;;;;;;;;;;;5036667;28;19974;-66
2023/06/23 08:06:46;;;;;;;;;;;;;;;;;;5037452;28;19965;-65
2023/06/23 08:09:12;;;;;;;;;;;;;;;;;;5036688;28;19956;-65
2023/06/23 08:11:38;;;;;;;;;;;;;;;;;;5037185;28;20459;-65
2023/06/23 08:14:04;;;;;;;;;;;;;;;;;;5036599;28;19955;-65
2023/06/23 08:16:30;;;;;;;;;;;;;;;;;;5036569;28;19962;-63
2023/06/23 08:18:56;;;;;;;;;;;;;;;;;;5036487;28;19956;-65
2023/06/23 08:21:22;;;;;;;;;;;;;;;;;;5036998;28;20311;-63
2023/06/23 08:23:48;;;;;;;;;;;;;;;;;;5036299;28;20324;-63
2023/06/23 08:26:14;;;;;;;;;;;;;;;;;;5036957;28;20420;-63
2023/06/23 08:28:39;;;;;;;;;;;;;;;;;;5036340;28;20007;-63
2023/06/23 08:31:05;;;;;;;;;;;;;;;;;;5036321;28;20010;-64
2023/06/23 08:33:31;;;;;;;;;;;;;;;;;;5036189;28;19995;-63
2023/06/23 08:35:57;;;;;;;;;;;;;;;;;;5036131;28;20455;-62
2023/06/23 08:38:24;;;;;;;;;;;;;;;;;;5036436;28;19956;-62
2023/06/23 08:40:50;;;;;;;;;;;;;;;;;;5036121;28;20056;-63
2023/06/23 08:43:16;;;;;;;;;;;;;;;;;;5036047;28;20433;-63
2023/06/23 08:45:42;;;;;;;;;;;;;;;;;;5036464;28;19982;-63
2023/06/23 08:48:09;;;;;;;;;;;;;;;;;;5035784;28;20411;-62
2023/06/23 08:50:35;;;;;;;;;;;;;;;;;;5035371;28;19959;-63
2023/06/23 08:53:01;;;;;;;;;;;;;;;;;;5036166;28;20411;-63
2023/06/23 08:55:27;;;;;;;;;;;;;;;;;;5036020;28;19966;-63
2023/06/23 08:57:52;;;;;;;;;;;;;;;;;;5035812;28;19959;-63
2023/06/23 09:00:19;;;;;;;;;;;;;;;;;;5035727;28;19962;-63
2023/06/23 09:02:45;;;;;;;;;;;;;;;;;;5034183;28;20343;-64
2023/06/23 09:05:11;;;;;;;;;;;;;;;;;;5036169;28;19982;-62
2023/06/23 09:07:37;;;;;;;;;;;;;;;;;;5036403;28;20014;-62
2023/06/23 09:10:03;;;;;;;;;;;;;;;;;;5035586;28;20043;-64
2023/06/23 09:12:29;;;;;;;;;;;;;;;;;;5035517;28;19994;-63
2023/06/23 09:14:55;;;;;;;;;;;;;;;;;;5036002;28;20404;-65
2023/06/23 09:17:21;;;;;;;;;;;;;;;;;;5035666;28;19959;-65
2023/06/23 09:19:49;;;;;;;;;;;;;;;;;;5035318;28;19962;-64
2023/06/23 09:22:15;;;;;;;;;;;;;;;;;;5035309;28;19959;-63
2023/06/23 09:24:41;;;;;;;;;;;;;;;;;;5035194;28;19980;-63
2023/06/23 09:27:07;;;;;;;;;;;;;;;;;;5035740;28;20372;-63
2023/06/23 09:29:33;;;;;;;;;;;;;;;;;;5035064;28;20010;-62
2023/06/23 09:32:00;;;;;;;;;;;;;;;;;;5035164;28;19956;-62
2023/06/23 09:34:26;;;;;;;;;;;;;;;;;;5035307;28;19977;-64
2023/06/23 09:36:52;;;;;;;;;;;;;;;;;;5035032;28;19962;-63
2023/06/23 09:39:19;;;;;;;;;;;;;;;;;;5035259;28;19963;-65
2023/06/23 09:41:46;;;;;;;;;;;;;;;;;;5033226;28;20424;-63
2023/06/23 09:44:12;;;;;;;;;;;;;;;;;;5035381;28;19975;-64
2023/06/23 09:46:38;;;;;;;;;;;;;;;;;;5034817;28;20002;-64
2023/06/23 09:49:04;;;;;;;;;;;;;;;;;;5035022;28;19982;-62
2023/06/23 09:51:30;;;;;;;;;;;;;;;;;;5035280;28;19962;-63
2023/06/23 09:53:56;;;;;;;;;;;;;;;;;;5034984;28;19994;-62
2023/06/23 09:56:22;;;;;;;;;;;;;;;;;;5034559;28;19956;-64
2023/06/23 09:58:48;;;;;;;;;;;;;;;;;;5034506;28;19977;-63
2023/06/23 10:01:15;;;;;;;;;;;;;;;;;;5033573;28;19955;-63
2023/06/23 10:03:41;;;;;;;;;;;;;;;;;;5034758;28;20383;-63
2023/06/23 10:06:07;;;;;;;;;;;;;;;;;;5035277;28;20009;-63
2023/06/23 10:08:33;;;;;;;;;;;;;;;;;;5033155;28;19959;-64
2023/06/23 10:10:59;;;;;;;;;;;;;;;;;;5034406;28;19955;-64
2023/06/23 10:13:24;;;;;;;;;;;;;;;;;;5034620;28;19956;-62
2023/06/23 10:15:50;;;;;;;;;;;;;;;;;;5034597;28;20047;-62
2023/06/23 10:18:16;;;;;;;;;;;;;;;;;;5034465;28;19967;-64
2023/06/23 10:20:42;;;;;;;;;;;;;;;;;;5034244;28;20001;-63
2023/06/23 10:23:08;;;;;;;;;;;;;;;;;;5034471;28;19955;-63
2023/06/23 10:25:34;;;;;;;;;;;;;;;;;;5034374;28;20087;-64
2023/06/23 10:28:00;;;;;;;;;;;;;;;;;;5034084;28;20033;-62
2023/06/23 10:30:26;;;;;;;;;;;;;;;;;;5034075;28;19994;-64
2023/06/23 10:32:52;;;;;;;;;;;;;;;;;;5032541;28;19969;-62
2023/06/23 10:35:18;;;;;;;;;;;;;;;;;;5034027;28;20003;-62
2023/06/23 10:37:44;;;;;;;;;;;;;;;;;;5034499;28;19955;-64
2023/06/23 10:40:10;;;;;;;;;;;;;;;;;;5033915;28;19955;-64
2023/06/23 10:42:36;;;;;;;;;;;;;;;;;;5033914;28;19991;-63
2023/06/23 10:45:03;;;;;;;;;;;;;;;;;;5034136;28;19981;-63
2023/06/23 10:47:28;;;;;;;;;;;;;;;;;;5033772;28;20547;-62
2023/06/23 10:49:55;;;;;;;;;;;;;;;;;;5033781;28;20003;-64
2023/06/23 10:52:22;;;;;;;;;;;;;;;;;;5032299;28;20057;-66
2023/06/23 10:54:47;;;;;;;;;;;;;;;;;;5033807;28;20467;-66
2023/06/23 10:57:13;;;;;;;;;;;;;;;;;;5034274;28;19994;-64
2023/06/23 10:59:39;;;;;;;;;;;;;;;;;;5033980;28;19963;-64
2023/06/23 11:02:07;;;;;;;;;;;;;;;;;;5033696;28;19955;-66
2023/06/23 11:04:33;;;;;;;;;;;;;;;;;;5033483;28;19987;-65
2023/06/23 11:06:59;;;;;;;;;;;;;;;;;;5034397;28;19955;-65
2023/06/23 11:09:25;;;;;;;;;;;;;;;;;;5033605;28;20320;-66
2023/06/23 11:11:51;;;;;;;;;;;;;;;;;;5034141;28;20068;-63
2023/06/23 11:14:18;;;;;;;;;;;;;;;;;;5037962;28;19959;-66
2023/06/23 11:16:44;;;;;;;;;;;;;;;;;;5037667;28;19981;-65
2023/06/23 11:19:09;;;;;;;;;;;;;;;;;;5037604;28;20003;-64
2023/06/23 11:21:36;;;;;;;;;;;;;;;;;;5037773;28;20046;-64
2023/06/23 11:24:01;;;;;;;;;;;;;;;;;;5037450;28;19976;-64
2023/06/23 11:26:27;;;;;;;;;;;;;;;;;;5037818;28;19959;-65
2023/06/23 11:28:53;;;;;;;;;;;;;;;;;;5037760;28;20407;-66
2023/06/23 11:31:20;;;;;;;;;;;;;;;;;;5037375;28;19995;-66
2023/06/23 11:33:46;;;;;;;;;;;;;;;;;;5037215;28;19998;-65
2023/06/23 11:36:13;;;;;;;;;;;;;;;;;;5036050;28;20316;-66
2023/06/23 11:38:39;;;;;;;;;;;;;;;;;;5037483;28;19959;-65
2023/06/23 11:41:06;;;;;;;;;;;;;;;;;;5037273;28;19956;-66
2023/06/23 11:43:32;;;;;;;;;;;;;;;;;;5036985;28;19996;-64
2023/06/23 11:45:58;;;;;;;;;;;;;;;;;;5037650;28;20003;-64
2023/06/23 11:48:24;;;;;;;;;;;;;;;;;;5036997;28;20403;-66
2023/06/23 11:50:50;;;;;;;;;;;;;;;;;;5037322;28;19956;-64
2023/06/23 11:53:16;;;;;;;;;;;;;;;;;;5037001;28;19956;-64
2023/06/23 11:55:42;;;;;;;;;;;;;;;;;;5037223;28;20003;-65
2023/06/23 11:58:08;;;;;;;;;;;;;;;;;;5036888;28;20043;-64
2023/06/23 12:00:34;;;;;;;;;;;;;;;;;;5036881;28;19962;-65
2023/06/23 12:03:00;;;;;;;;;;;;;;;;;;5037352;28;20422;-65
2023/06/23 12:05:27;;;;;;;;;;;;;;;;;;5036958;28;19986;-66
2023/06/23 12:07:53;;;;;;;;;;;;;;;;;;5037213;28;20419;-65
2023/06/23 12:10:20;;;;;;;;;;;;;;;;;;5036926;28;19967;-64
2023/06/23 12:12:48;;;;;;;;;;;;;;;;;;5036615;28;20060;-65
2023/06/23 12:15:14;;;;;;;;;;;;;;;;;;5036924;28;19955;-65
2023/06/23 12:17:41;;;;;;;;;;;;;;;;;;5037349;28;20293;-65
2023/06/23 12:20:07;;;;;;;;;;;;;;;;;;5036533;28;20069;-66
2023/06/23 12:22:33;;;;;;;;;;;;;;;;;;5036707;28;20362;-65
2023/06/23 12:25:01;;;;;;;;;;;;;;;;;;5035202;28;20022;-65
2023/06/23 12:27:27;;;;;;;;;;;;;;;;;;5036593;28;19959;-65
2023/06/23 12:29:53;;;;;;;;;;;;;;;;;;5036324;28;19960;-66
2023/06/23 12:32:19;;;;;;;;;;;;;;;;;;5034790;28;19999;-65
2023/06/23 12:34:45;;;;;;;;;;;;;;;;;;5034855;28;20014;-65
2023/06/23 12:37:11;;;;;;;;;;;;;;;;;;5036763;28;19956;-66
2023/06/23 12:39:37;;;;;;;;;;;;;;;;;;5037175;28;19970;-66
2023/06/23 12:42:03;;;;;;;;;;;;;;;;;;5035937;28;19985;-66
2023/06/23 12:44:29;;;;;;;;;;;;;;;;;;5036296;28;19975;-65
2023/06/23 12:46:55;;;;;;;;;;;;;;;;;;5036000;28;19955;-63
2023/06/23 12:49:22;;;;;;;;;;;;;;;;;;5035966;28;20020;-65
2023/06/23 12:51:48;;;;;;;;;;;;;;;;;;5035841;28;20018;-66
2023/06/23 12:54:14;;;;;;;;;;;;;;;;;;5035907;28;20006;-66
2023/06/23 12:56:39;;;;;;;;;;;;;;;;;;5035837;28;19955;-66
2023/06/23 12:59:05;;;;;;;;;;;;;;;;;;5036113;28;19954;-66
2023/06/23 13:01:31;;;;;;;;;;;;;;;;;;5035795;28;20462;-65
2023/06/23 13:03:57;;;;;;;;;;;;;;;;;;5035603;28;19960;-64
2023/06/23 13:06:23;;;;;;;;;;;;;;;;;;5036207;28;19941;-66
2023/06/23 13:08:50;;;;;;;;;;;;;;;;;;5035860;28;19978;-66
2023/06/23 13:11:16;;;;;;;;;;;;;;;;;;5034030;28;19966;-66
2023/06/23 13:13:42;;;;;;;;;;;;;;;;;;5035752;28;19956;-65
2023/06/23 13:16:08;;;;;;;;;;;;;;;;;;5035421;28;19959;-66
2023/06/23 13:18:34;;;;;;;;;;;;;;;;;;5035681;28;20110;-66
2023/06/23 13:21:00;;;;;;;;;;;;;;;;;;5035651;28;20427;-64
2023/06/23 13:23:26;;;;;;;;;;;;;;;;;;5035569;28;19962;-65
2023/06/23 13:25:52;;;;;;;;;;;;;;;;;;5035212;28;20030;-65
2023/06/23 13:28:18;;;;;;;;;;;;;;;;;;5035210;28;20015;-65
2023/06/23 13:30:44;;;;;;;;;;;;;;;;;;5035766;28;20406;-64
2023/06/23 13:33:10;;;;;;;;;;;;;;;;;;5035129;28;19978;-65
2023/06/23 13:35:36;;;;;;;;;;;;;;;;;;5034922;28;19970;-66
2023/06/23 13:38:02;;;;;;;;;;;;;;;;;;5035917;28;20444;-64
2023/06/23 13:40:28;;;;;;;;;;;;;;;;;;5035018;28;19959;-66
2023/06/23 13:42:54;;;;;;;;;;;;;;;;;;5034761;28;20417;-65
2023/06/23 13:45:20;;;;;;;;;;;;;;;;;;5034877;28;19981;-65
2023/06/23 13:47:46;;;;;;;;;;;;;;;;;;5035070;28;19967;-66
2023/06/23 13:50:12;;;;;;;;;;;;;;;;;;5035035;28;19960;-66
2023/06/23 13:52:38;;;;;;;;;;;;;;;;;;5034690;28;19963;-64
2023/06/23 13:55:05;;;;;;;;;;;;;;;;;;5034751;28;19996;-63
2023/06/23 13:57:31;;;;;;;;;;;;;;;;;;5034719;28;19957;-66
2023/06/23 13:59:57;;;;;;;;;;;;;;;;;;5034912;28;19964;-65
2023/06/23 14:02:23;;;;;;;;;;;;;;;;;;5034582;28;20379;-65
2023/06/23 14:04:49;;;;;;;;;;;;;;;;;;5034708;28;19983;-66
2023/06/23 14:07:15;;;;;;;;;;;;;;;;;;5034989;28;20418;-66
2023/06/23 14:09:41;;;;;;;;;;;;;;;;;;5034786;28;19958;-66
2023/06/23 14:12:07;;;;;;;;;;;;;;;;;;5035259;28;20409;-66
2023/06/23 14:14:33;;;;;;;;;;;;;;;;;;5034332;28;20006;-66
2023/06/23 14:16:59;;;;;;;;;;;;;;;;;;5034595;28;19956;-66
2023/06/23 14:19:25;;;;;;;;;;;;;;;;;;5034533;28;20047;-65
2023/06/23 14:21:51;;;;;;;;;;;;;;;;;;5034786;28;20002;-65
2023/06/23 14:24:17;;;;;;;;;;;;;;;;;;5034319;28;19979;-64
2023/06/23 14:26:43;;;;;;;;;;;;;;;;;;5034159;28;19963;-64
2023/06/23 14:29:09;;;;;;;;;;;;;;;;;;5034384;28;20415;-67
2023/06/23 14:31:35;;;;;;;;;;;;;;;;;;5034358;28;20019;-64
2023/06/23 14:34:01;;;;;;;;;;;;;;;;;;5034273;28;20423;-64
2023/06/23 14:36:26;;;;;;;;;;;;;;;;;;5034020;28;19963;-66
2023/06/23 14:38:52;;;;;;;;;;;;;;;;;;5034221;28;19964;-65
2023/06/23 14:41:18;;;;;;;;;;;;;;;;;;5034559;28;19956;-62
2023/06/23 14:43:44;;;;;;;;;;;;;;;;;;5034203;28;20455;-62
2023/06/23 14:46:10;;;;;;;;;;;;;;;;;;5033649;28;19960;-63
2023/06/23 14:48:36;;;;;;;;;;;;;;;;;;5033803;28;19962;-63
2023/06/23 14:51:02;;;;;;;;;;;;;;;;;;5033830;28;20043;-64
2023/06/23 14:53:28;;;;;;;;;;;;;;;;;;5032482;28;19963;-63
2023/06/23 14:55:54;;;;;;;;;;;;;;;;;;5033773;28;19977;-63
2023/06/23 14:58:20;;;;;;;;;;;;;;;;;;5033996;28;19955;-64
2023/06/23 15:00:46;;;;;;;;;;;;;;;;;;5033984;28;19954;-63
2023/06/23 15:03:12;;;;;;;;;;;;;;;;;;5034219;28;19957;-62
2023/06/23 15:05:38;;;;;;;;;;;;;;;;;;5033583;28;20003;-63
2023/06/23 15:08:04;;;;;;;;;;;;;;;;;;5034742;28;19963;-61
2023/06/23 15:10:31;;;;;;;;;;;;;;;;;;5033823;28;19960;-63
2023/06/23 15:12:57;;;;;;;;;;;;;;;;;;5032047;28;19960;-61
2023/06/23 15:15:23;;;;;;;;;;;;;;;;;;5033564;28;20431;-62
2023/06/23 15:17:49;;;;;;;;;;;;;;;;;;5033515;28;19955;-64
2023/06/23 15:20:15;;;;;;;;;;;;;;;;;;5034095;28;20312;-64
2023/06/23 15:22:41;;;;;;;;;;;;;;;;;;5033770;28;20047;-63
2023/06/23 15:25:07;;;;;;;;;;;;;;;;;;5033375;28;20483;-61
2023/06/23 15:27:32;;;;;;;;;;;;;;;;;;5033521;28;19955;-62
2023/06/23 15:29:58;;;;;;;;;;;;;;;;;;5033739;28;20016;-62
2023/06/23 15:32:24;;;;;;;;;;;;;;;;;;5033701;28;19955;-63
2023/06/23 15:34:51;;;;;;;;;;;;;;;;;;5033341;28;19972;-62
2023/06/23 15:37:17;;;;;;;;;;;;;;;;;;5033690;28;20471;-63
2023/06/23 15:39:44;;;;;;;;;;;;;;;;;;5033897;28;19957;-63
2023/06/23 15:42:10;;;;;;;;;;;;;;;;;;5031665;28;20031;-64
2023/06/23 15:44:36;;;;;;;;;;;;;;;;;;5033536;28;20016;-62
2023/06/23 15:47:01;;;;;;;;;;;;;;;;;;5033290;28;20005;-63
2023/06/23 15:49:28;;;;;;;;;;;;;;;;;;5033501;28;20300;-62
2023/06/23 15:51:54;;;;;;;;;;;;;;;;;;5033517;28;20001;-64
2023/06/23 15:54:20;;;;;;;;;;;;;;;;;;5033789;28;19956;-62
2023/06/23 15:56:46;;;;;;;;;;;;;;;;;;5033174;28;19957;-62
2023/06/23 15:59:12;;;;;;;;;;;;;;;;;;5036029;28;19956;-63
2023/06/23 16:01:38;;;;;;;;;;;;;;;;;;5037130;28;20034;-62
2023/06/23 16:04:04;;;;;;;;;;;;;;;;;;5036741;28;19963;-62
2023/06/23 16:06:29;;;;;;;;;;;;;;;;;;5036801;28;20000;-63
2023/06/23 16:08:55;;;;;;;;;;;;;;;;;;5037202;28;19956;-64
2023/06/23 16:11:21;;;;;;;;;;;;;;;;;;5036713;28;19955;-64
2023/06/23 16:13:47;;;;;;;;;;;;;;;;;;5036938;28;19960;-63
2023/06/23 16:16:13;;;;;;;;;;;;;;;;;;5036620;28;20379;-63
2023/06/23 16:18:39;;;;;;;;;;;;;;;;;;5036570;28;19955;-61
2023/06/23 16:21:05;;;;;;;;;;;;;;;;;;5037079;28;19955;-62
2023/06/23 16:23:31;;;;;;;;;;;;;;;;;;5036525;28;20064;-61
2023/06/23 16:25:57;;;;;;;;;;;;;;;;;;5036332;28;20030;-64
2023/06/23 16:28:23;;;;;;;;;;;;;;;;;;5036693;28;19955;-62
2023/06/23 16:30:49;;;;;;;;;;;;;;;;;;5036558;28;19960;-62
2023/06/23 16:33:14;;;;;;;;;;;;;;;;;;5036316;28;19955;-62
2023/06/23 16:35:40;;;;;;;;;;;;;;;;;;5036162;28;20060;-64
2023/06/23 16:38:06;;;;;;;;;;;;;;;;;;5036736;28;20412;-62